createdAt,value
2019-04-28T00:01:54.586Z,62.76
2019-04-28T00:07:01.862Z,62.95
2019-04-28T00:12:11.284Z,63.13
2019-04-28T00:17:18.597Z,63.47
2019-04-28T00:22:35.482Z,64.06
2019-04-28T00:27:42.581Z,64.06
2019-04-28T00:32:49.585Z,64.20
2019-04-28T00:37:56.582Z,64.46
2019-04-28T00:43:03.660Z,64.70
2019-04-28T00:48:11.005Z,65.27
2019-04-28T00:53:18.577Z,65.27
2019-04-28T00:58:25.600Z,66.27
2019-04-28T01:03:32.602Z,66.21
2019-04-28T01:08:39.699Z,66.72
2019-04-28T01:13:46.597Z,67.38
2019-04-28T01:19:20.108Z,67.40
2019-04-28T01:24:27.262Z,67.40
2019-04-28T01:29:34.519Z,67.65
2019-04-28T01:34:41.631Z,67.59
2019-04-28T01:39:49.574Z,68.25
2019-04-28T01:44:56.564Z,68.42
2019-04-28T01:50:03.565Z,68.19
2019-04-28T01:55:10.589Z,68.11
2019-04-28T02:00:23.058Z,68.14
2019-04-28T02:05:27.264Z,68.14
2019-04-28T02:10:34.459Z,68.35
2019-04-28T02:15:41.605Z,68.50
2019-04-28T02:20:53.257Z,68.92
2019-04-28T02:26:00.620Z,68.92
2019-04-28T02:31:07.596Z,69.42
2019-04-28T02:36:14.614Z,69.26
2019-04-28T02:41:23.277Z,68.77
2019-04-28T02:46:30.885Z,68.77
2019-04-28T02:51:46.539Z,68.86
2019-04-28T02:56:53.600Z,68.98
2019-04-28T03:02:00.804Z,68.83
2019-04-28T03:07:08.237Z,68.83
2019-04-28T03:12:15.565Z,68.69
2019-04-28T03:17:22.604Z,68.69
2019-04-28T03:22:33.001Z,68.85
2019-04-28T03:28:01.246Z,68.85
2019-04-28T03:33:13.214Z,68.85
2019-04-28T03:38:21.230Z,68.81
2019-04-28T03:43:26.351Z,68.81
2019-04-28T03:48:33.647Z,68.82
2019-04-28T03:53:41.128Z,69.18
2019-04-28T04:02:36.745Z,69.30
2019-04-28T04:07:43.588Z,69.80
2019-04-28T04:12:55.258Z,70.83
2019-04-28T04:18:11.085Z,70.83
2019-04-28T04:23:17.338Z,71.25
2019-04-28T04:28:24.437Z,71.58
2019-04-28T04:33:31.570Z,71.58
2019-04-28T04:38:43.028Z,72.19
2019-04-28T04:43:46.328Z,72.19
2019-04-28T04:48:54.591Z,72.66
2019-04-28T04:54:01.586Z,74.76
2019-04-28T04:59:10.306Z,75.04
2019-04-28T05:04:23.545Z,75.04
2019-04-28T05:09:31.196Z,75.29
2019-04-28T05:14:39.514Z,75.29
2019-04-28T05:19:46.523Z,75.64
2019-04-28T05:25:10.091Z,75.64
2019-04-28T05:30:17.607Z,76.11
2019-04-28T05:35:25.238Z,76.37
2019-04-28T05:40:32.601Z,76.37
2019-04-28T05:45:39.823Z,76.93
2019-04-28T05:50:52.676Z,76.93
2019-04-28T05:56:24.245Z,78.31
2019-04-28T06:01:35.513Z,78.31
2019-04-28T06:06:44.272Z,79.19
2019-04-28T06:11:50.316Z,79.19
2019-04-28T06:16:57.619Z,78.92
2019-04-28T06:22:04.618Z,78.92
2019-04-28T06:27:11.650Z,78.97
2019-04-28T06:32:18.642Z,78.54
2019-04-28T06:37:25.597Z,78.54
2019-04-28T06:42:32.603Z,78.56
2019-04-28T06:47:39.626Z,78.22
2019-04-28T06:52:46.587Z,78.15
2019-04-28T06:57:53.601Z,77.81
2019-04-28T07:03:00.719Z,77.80
2019-04-28T07:08:07.897Z,77.80
2019-04-28T07:13:14.794Z,77.81
2019-04-28T07:18:21.692Z,77.54
2019-04-28T07:23:28.765Z,77.13
2019-04-28T07:28:36.044Z,77.13
2019-04-28T07:33:43.286Z,76.50
2019-04-28T07:38:50.570Z,76.62
2019-04-28T07:43:57.575Z,76.10
2019-04-28T07:49:04.600Z,76.10
2019-04-28T07:54:12.484Z,75.83
2019-04-28T07:59:19.628Z,75.83
2019-04-28T08:04:26.587Z,76.26
2019-04-28T08:09:33.582Z,76.35
2019-04-28T08:14:40.555Z,76.28
2019-04-28T08:19:47.623Z,76.28
2019-04-28T08:24:54.609Z,74.55
2019-04-28T08:30:01.573Z,74.62
2019-04-28T08:35:09.748Z,74.62
2019-04-28T08:40:17.056Z,74.68
2019-04-28T08:45:24.698Z,75.17
2019-04-28T08:50:32.771Z,75.33
2019-04-28T08:55:40.269Z,76.00
2019-04-28T09:00:47.862Z,76.81
2019-04-28T09:05:55.286Z,76.81
2019-04-28T09:11:02.733Z,76.00
2019-04-28T09:16:10.256Z,75.41
2019-04-28T09:21:17.652Z,74.43
2019-04-28T09:26:26.647Z,71.97
2019-04-28T09:31:34.259Z,70.80
2019-04-28T09:36:43.609Z,70.80
2019-04-28T09:42:09.475Z,68.82
2019-04-28T09:47:17.254Z,68.82
2019-04-28T09:52:24.677Z,67.38
2019-04-28T09:57:33.285Z,66.30
2019-04-28T10:02:41.125Z,66.30
2019-04-28T10:07:48.924Z,64.60
2019-04-28T10:12:55.366Z,64.60
2019-04-28T10:18:01.533Z,63.15
2019-04-28T10:23:08.711Z,62.60
2019-04-28T10:28:16.627Z,62.03
2019-04-28T10:33:24.267Z,62.84
2019-04-28T10:38:31.802Z,61.63
2019-04-28T10:43:39.702Z,60.00
2019-04-28T10:48:47.600Z,58.77
2019-04-28T10:53:54.875Z,58.67
2019-04-28T10:59:03.717Z,58.67
2019-04-28T11:04:29.665Z,57.82
2019-04-28T11:09:42.351Z,58.43
2019-04-28T11:14:49.579Z,58.72
2019-04-28T11:19:57.033Z,56.29
2019-04-28T11:25:04.496Z,54.42
2019-04-28T11:30:13.415Z,54.42
2019-04-28T11:35:28.288Z,52.20
2019-04-28T11:40:35.579Z,53.29
2019-04-28T11:45:43.598Z,53.26
2019-04-28T11:50:50.597Z,52.62
2019-04-28T11:55:57.596Z,53.81
2019-04-28T12:01:05.595Z,52.89
2019-04-28T12:06:12.606Z,52.82
2019-04-28T12:11:44.289Z,52.74
2019-04-28T12:17:21.774Z,52.74
2019-04-28T12:22:28.598Z,53.08
2019-04-28T12:27:35.602Z,52.62
2019-04-28T12:32:42.578Z,52.88
2019-04-28T12:37:49.467Z,52.36
2019-04-28T12:42:56.471Z,52.36
2019-04-28T12:48:03.546Z,52.35
2019-04-28T12:53:10.567Z,53.35
2019-04-28T12:58:17.517Z,52.59
2019-04-28T13:03:49.259Z,52.59
2019-04-28T13:08:56.418Z,52.42
2019-04-28T13:14:03.587Z,52.02
2019-04-28T13:19:10.570Z,51.39
2019-04-28T13:24:17.572Z,51.42
2019-04-28T13:29:24.590Z,51.42
2019-04-28T13:34:33.261Z,50.23
2019-04-28T13:39:46.631Z,50.23
2019-04-28T13:45:01.253Z,49.56
2019-04-28T13:50:22.127Z,49.56
2019-04-28T13:55:54.537Z,48.51
2019-04-28T14:01:24.591Z,47.32
2019-04-28T14:06:32.520Z,47.55
2019-04-28T14:11:39.932Z,47.55
2019-04-28T14:16:47.046Z,47.74
2019-04-28T14:21:54.232Z,48.15
2019-04-28T14:27:01.430Z,47.66
2019-04-28T14:32:08.491Z,46.72
2019-04-28T14:37:18.519Z,46.35
2019-04-28T14:42:25.604Z,46.16
2019-04-28T14:47:32.483Z,46.61
2019-04-28T14:52:38.268Z,46.61
2019-04-28T14:57:57.545Z,47.05
2019-04-28T15:03:09.240Z,46.70
2019-04-28T15:08:34.761Z,46.22
2019-04-28T15:13:41.613Z,43.75
2019-04-28T15:19:00.334Z,43.23
2019-04-28T15:24:07.586Z,43.23
2019-04-28T15:30:41.693Z,44.49
2019-04-28T15:38:23.655Z,45.38
2019-04-28T15:43:29.522Z,43.79
2019-04-28T15:48:36.570Z,43.79
2019-04-28T15:53:45.274Z,41.79
2019-04-28T15:58:51.294Z,41.79
2019-04-28T16:03:58.442Z,41.62
2019-04-28T16:09:12.926Z,41.82
2019-04-28T16:14:19.690Z,41.65
2019-04-28T16:19:26.583Z,41.49
2019-04-28T16:24:33.483Z,41.67
2019-04-28T16:29:41.377Z,41.67
2019-04-28T16:34:50.668Z,41.62
2019-04-28T16:39:58.465Z,41.82
2019-04-28T16:45:07.857Z,41.96
2019-04-28T16:50:15.081Z,42.25
2019-04-28T16:55:27.263Z,43.17
2019-04-28T17:00:56.343Z,43.12
2019-04-28T17:06:04.454Z,43.25
2019-04-28T17:11:12.224Z,42.51
2019-04-28T17:16:19.492Z,41.63
2019-04-28T17:21:26.737Z,42.47
2019-04-28T17:26:33.637Z,42.47
2019-04-28T17:31:40.594Z,42.94
2019-04-28T17:36:47.504Z,43.49
2019-04-28T17:44:53.069Z,44.57
2019-04-28T17:50:00.591Z,45.06
2019-04-28T17:55:09.767Z,45.79
2019-04-28T18:00:39.352Z,45.79
2019-04-28T18:05:50.660Z,46.07
2019-04-28T18:10:57.646Z,47.08
2019-04-28T18:16:33.252Z,47.08
2019-04-28T18:21:40.371Z,47.67
2019-04-28T18:26:47.633Z,48.31
2019-04-28T18:32:05.949Z,48.78
2019-04-28T18:37:44.262Z,49.16
2019-04-28T18:42:58.252Z,49.61
2019-04-28T18:48:05.693Z,50.21
2019-04-28T18:53:13.689Z,50.77
2019-04-28T18:58:19.498Z,51.64
2019-04-28T19:03:26.507Z,51.64
2019-04-28T19:08:49.195Z,52.14
2019-04-28T19:13:59.856Z,52.53
2019-04-28T19:19:09.277Z,52.91
2019-04-28T19:24:29.296Z,53.36
2019-04-28T19:29:42.569Z,53.66
2019-04-28T19:34:51.375Z,53.93
2019-04-28T19:39:58.500Z,54.28
2019-04-28T19:45:06.336Z,54.59
2019-04-28T19:50:13.599Z,54.91
2019-04-28T19:55:28.256Z,55.82
2019-04-28T20:00:42.856Z,55.82
2019-04-28T20:05:51.614Z,56.01
2019-04-28T20:10:58.030Z,56.47
2019-04-28T20:16:06.059Z,56.47
2019-04-28T20:21:15.804Z,56.71
2019-04-28T20:26:24.868Z,57.14
2019-04-28T20:31:32.711Z,57.71
2019-04-28T20:36:56.285Z,57.72
2019-04-28T20:42:20.261Z,57.92
2019-04-28T20:47:36.921Z,58.14
2019-04-28T20:52:43.026Z,58.40
2019-04-28T20:57:52.780Z,58.50
2019-04-28T21:02:59.051Z,58.60
2019-04-28T21:08:07.573Z,58.64
2019-04-28T21:13:13.708Z,59.07
2019-04-28T21:18:20.609Z,59.19
2019-04-28T21:23:27.461Z,59.40
2019-04-28T21:28:33.313Z,59.40
2019-04-28T21:33:40.449Z,59.56
2019-04-28T21:38:50.786Z,59.71
2019-04-28T21:44:09.241Z,59.78
2019-04-28T21:49:24.699Z,59.98
2019-04-28T21:54:31.596Z,59.90
2019-04-28T21:59:38.597Z,59.90
2019-04-28T22:04:47.105Z,59.98
2019-04-28T22:09:54.581Z,59.98
2019-04-28T22:15:02.344Z,59.77
2019-04-28T22:20:09.869Z,59.77
2019-04-28T22:25:22.731Z,60.04
2019-04-28T22:30:29.616Z,60.21
2019-04-28T22:35:36.592Z,60.38
2019-04-28T22:40:44.583Z,60.56
2019-04-28T22:45:51.600Z,61.08
2019-04-28T22:50:58.458Z,61.40
2019-04-28T22:56:14.283Z,61.40
2019-04-28T23:01:31.268Z,61.42
2019-04-28T23:06:38.538Z,61.65
2019-04-28T23:11:44.361Z,61.75
2019-04-28T23:16:51.457Z,62.21
2019-04-28T23:22:09.532Z,62.21
2019-04-28T23:27:16.439Z,62.29
2019-04-28T23:32:23.455Z,62.44
2019-04-28T23:37:29.273Z,62.75
2019-04-28T23:42:41.263Z,62.77
2019-04-28T23:47:48.390Z,63.07
2019-04-28T23:53:03.950Z,63.07
2019-04-28T23:58:10.864Z,63.23
